Skip Navigation LinksHome page > Weather > Current weather Skip Navigation Links

Current Weather

San Francisco International, San Francisco

For information only: do not use for flight planning or navigation.
Latest weather
Observation time Saturday, July 30, 2016 12:56 PM PDT
Local time Saturday, July 30, 2016 1:35 PM PDT
Flight conditions Visual Meteorological Conditions
Winds
Wind direction Northwest (310°)
Wind speed 16 mph
Visibility 10 mi.
Sky condition
Ceiling unlimited
Cloud layer few clouds 800 ft.
Temperature 67°F
Dewpoint 53°F
Altimeter 29.84 in.Hg
Derived measurements
Relative humidity 61%
Density altitude 815 ft.
Sea-level pressure 29.84 in.Hg
Remarks
Automated weather observing station with precipitation discriminator.
METAR KSFO 301956Z 31014KT 10SM FEW008 19/12 A2984 RMK AO2 SLP106 T01940117

Settings

Location code

InnerDrive.Weather 4.0.5722.1 Release CLR 4.0.30319.34209
Copyright ©2015 Inner Drive Technology. All rights reserved. Portions Copyright ©1986-2015 David Braverman.

Find weather

Site navigation


Skip Navigation Links

Place info

Page info

PayPal - The safer, easier way to pay online!

Return home.

Copyright ©2016 Inner Drive Technology. Purveyors of fine, hand-crafted computer software. Page printed 2016-07-30T20:35:17 UTC.